Wetterdaten: Woche 25.11.19 - 01.12.19 (KW48)
Datum Zeit Temp. I. Temp. A. Feuchte I. Feuchte A. Luftdruck Regen Wind Richtung Sonnenschein Solar Taupunkt Windchill Windböen
25.11.2019 00:00 22,8 °C 2,9 °C 52 % 95 % 1011,3 hPa 0,0 l/m² 2,4 km/h (1 Bft) O-NO 0,00 h 0 W/m² 2,1 °C 2,9 °C 3,7 km/h (1 Bft)
25.11.2019 01:00 22,7 °C 2,9 °C 52 % 95 % 1011,4 hPa 0,0 l/m² 0,9 km/h (0 Bft) O-NO 0,00 h 0 W/m² 2,1 °C 2,9 °C 2,0 km/h (1 Bft)
25.11.2019 02:00 22,7 °C 3,0 °C 52 % 95 % 1011,3 hPa 0,0 l/m² 0,7 km/h (0 Bft) O-NO 0,00 h 0 W/m² 2,3 °C 3,0 °C 1,6 km/h (1 Bft)
25.11.2019 03:00 22,7 °C 3,1 °C 52 % 95 % 1011,4 hPa 0,0 l/m² 1,1 km/h (0 Bft) N-NO 0,00 h 0 W/m² 2,3 °C 3,1 °C 2,0 km/h (1 Bft)
25.11.2019 04:00 22,7 °C 3,0 °C 51 % 95 % 1011,3 hPa 0,0 l/m² 1,2 km/h (1 Bft) N-NO 0,00 h 0 W/m² 2,2 °C 3,0 °C 2,2 km/h (1 Bft)
25.11.2019 05:00 22,6 °C 3,0 °C 50 % 95 % 1011,3 hPa 0,0 l/m² 3,0 km/h (1 Bft) SO 0,00 h 0 W/m² 2,3 °C 3,0 °C 4,4 km/h (1 Bft)
25.11.2019 06:00 22,6 °C 2,8 °C 50 % 96 % 1011,5 hPa 0,0 l/m² 6,3 km/h (2 Bft) O 0,00 h 0 W/m² 2,2 °C 2,2 °C 9,4 km/h (2 Bft)
25.11.2019 07:00 22,4 °C 2,4 °C 49 % 96 % 1011,9 hPa 0,2 l/m² 5,9 km/h (2 Bft) O-NO 0,00 h 0 W/m² 1,8 °C 2,2 °C 8,2 km/h (2 Bft)
25.11.2019 08:00 22,5 °C 2,5 °C 49 % 96 % 1012,2 hPa 0,0 l/m² 4,4 km/h (1 Bft) O-NO 0,00 h 12 W/m² 2,0 °C 2,5 °C 6,5 km/h (2 Bft)
25.11.2019 09:00 22,6 °C 2,5 °C 49 % 96 % 1012,3 hPa 0,0 l/m² 4,7 km/h (1 Bft) O 0,00 h 34 W/m² 1,9 °C 2,4 °C 6,6 km/h (2 Bft)
25.11.2019 10:00 22,5 °C 2,7 °C 49 % 96 % 1012,2 hPa 0,0 l/m² 4,8 km/h (1 Bft) O-NO 0,62 h 66 W/m² 2,1 °C 2,7 °C 6,9 km/h (2 Bft)
25.11.2019 11:00 22,6 °C 3,0 °C 49 % 96 % 1012,0 hPa 0,0 l/m² 7,0 km/h (2 Bft) O-SO 0,75 h 65 W/m² 2,5 °C 2,2 °C 10,2 km/h (2 Bft)
25.11.2019 12:00 22,6 °C 2,8 °C 49 % 96 % 1011,8 hPa 0,0 l/m² 7,1 km/h (2 Bft) O-SO 0,32 h 48 W/m² 2,2 °C 1,9 °C 10,3 km/h (2 Bft)
25.11.2019 13:00 22,5 °C 2,8 °C 49 % 95 % 1011,7 hPa 0,0 l/m² 5,3 km/h (1 Bft) O-SO 0,03 h 39 W/m² 2,1 °C 2,6 °C 7,5 km/h (2 Bft)
25.11.2019 14:00 22,4 °C 2,7 °C 49 % 95 % 1011,6 hPa 0,0 l/m² 3,2 km/h (1 Bft) S-SO 0,00 h 29 W/m² 2,0 °C 2,7 °C 5,2 km/h (1 Bft)
25.11.2019 15:00 22,4 °C 2,6 °C 47 % 95 % 1011,4 hPa 0,0 l/m² 3,9 km/h (1 Bft) S-SO 0,00 h 12 W/m² 1,9 °C 2,6 °C 5,7 km/h (2 Bft)
25.11.2019 16:00 22,3 °C 2,7 °C 46 % 95 % 1011,6 hPa 0,0 l/m² 4,9 km/h (1 Bft) O-SO 0,00 h 0 W/m² 2,0 °C 2,6 °C 6,9 km/h (2 Bft)
25.11.2019 17:00 22,2 °C 2,7 °C 44 % 95 % 1011,5 hPa 0,0 l/m² 4,2 km/h (1 Bft) SO 0,00 h 0 W/m² 2,0 °C 2,7 °C 6,0 km/h (2 Bft)
25.11.2019 18:00 22,1 °C 2,7 °C 46 % 95 % 1011,7 hPa 0,0 l/m² 2,2 km/h (1 Bft) S-SW 0,00 h 0 W/m² 2,0 °C 2,7 °C 3,5 km/h (1 Bft)
25.11.2019 19:00 22,3 °C 2,7 °C 48 % 95 % 1011,6 hPa 0,0 l/m² 5,3 km/h (1 Bft) S-SO 0,00 h 0 W/m² 2,0 °C 2,6 °C 7,6 km/h (2 Bft)
25.11.2019 20:00 22,4 °C 2,8 °C 50 % 96 % 1011,6 hPa 0,0 l/m² 5,6 km/h (2 Bft) S 0,00 h 0 W/m² 2,2 °C 2,6 °C 7,8 km/h (2 Bft)
25.11.2019 21:00 22,8 °C 2,8 °C 51 % 96 % 1011,4 hPa 0,0 l/m² 5,8 km/h (2 Bft) S 0,00 h 0 W/m² 2,2 °C 2,5 °C 8,1 km/h (2 Bft)
25.11.2019 22:00 22,8 °C 2,8 °C 51 % 95 % 1011,3 hPa 0,0 l/m² 5,9 km/h (2 Bft) S 0,00 h 0 W/m² 2,1 °C 2,5 °C 8,3 km/h (2 Bft)
25.11.2019 23:00 22,6 °C 2,9 °C 51 % 96 % 1011,1 hPa 0,0 l/m² 7,4 km/h (2 Bft) S 0,00 h 0 W/m² 2,3 °C 1,6 °C 10,2 km/h (2 Bft)
26.11.2019 00:00 22,4 °C 2,9 °C 50 % 96 % 1010,8 hPa 0,0 l/m² 3,8 km/h (1 Bft) S 0,00 h 0 W/m² 2,3 °C 2,9 °C 5,7 km/h (2 Bft)
26.11.2019 01:00 22,4 °C 3,1 °C 50 % 95 % 1010,3 hPa 0,0 l/m² 5,6 km/h (2 Bft) S-SO 0,00 h 0 W/m² 2,5 °C 2,6 °C 8,3 km/h (2 Bft)
26.11.2019 02:00 22,4 °C 3,4 °C 50 % 95 % 1009,9 hPa 0,0 l/m² 7,4 km/h (2 Bft) S 0,00 h 0 W/m² 2,7 °C 2,4 °C 11,2 km/h (2 Bft)
26.11.2019 03:00 22,4 °C 3,7 °C 50 % 95 % 1009,4 hPa 0,0 l/m² 7,4 km/h (2 Bft) S 0,00 h 0 W/m² 3,0 °C 2,6 °C 10,8 km/h (2 Bft)
26.11.2019 04:00 22,4 °C 3,9 °C 50 % 94 % 1009,2 hPa 0,0 l/m² 5,7 km/h (2 Bft) S-SO 0,00 h 0 W/m² 3,1 °C 3,6 °C 8,7 km/h (2 Bft)
26.11.2019 05:00 22,3 °C 4,1 °C 47 % 94 % 1009,0 hPa 0,0 l/m² 4,6 km/h (1 Bft) S-SO 0,00 h 0 W/m² 3,2 °C 4,1 °C 7,0 km/h (2 Bft)
26.11.2019 06:00 22,3 °C 4,1 °C 47 % 93 % 1008,7 hPa 0,0 l/m² 4,3 km/h (1 Bft) S-SO 0,00 h 0 W/m² 3,1 °C 4,1 °C 6,5 km/h (2 Bft)
26.11.2019 07:00 22,2 °C 4,2 °C 47 % 93 % 1008,8 hPa 0,0 l/m² 5,2 km/h (1 Bft) S-SO 0,00 h 5 W/m² 3,2 °C 4,1 °C 7,9 km/h (2 Bft)
26.11.2019 08:00 22,3 °C 4,5 °C 47 % 93 % 1008,8 hPa 0,0 l/m² 5,8 km/h (2 Bft) S-SO 0,00 h 20 W/m² 3,4 °C 4,3 °C 8,9 km/h (2 Bft)
26.11.2019 09:00 22,5 °C 4,8 °C 47 % 92 % 1008,7 hPa 0,0 l/m² 5,9 km/h (2 Bft) S-SW 0,97 h 88 W/m² 3,5 °C 4,4 °C 8,9 km/h (2 Bft)
26.11.2019 10:00 22,5 °C 5,4 °C 47 % 92 % 1008,6 hPa 0,0 l/m² 4,8 km/h (1 Bft) S 1,00 h 78 W/m² 4,2 °C 5,2 °C 7,0 km/h (2 Bft)
26.11.2019 11:00 22,4 °C 7,0 °C 47 % 90 % 1008,0 hPa 0,0 l/m² 8,4 km/h (2 Bft) S 1,00 h 95 W/m² 5,5 °C 5,4 °C 12,2 km/h (2 Bft)
26.11.2019 12:00 22,6 °C 8,3 °C 47 % 88 % 1007,4 hPa 0,0 l/m² 8,9 km/h (2 Bft) S 1,00 h 165 W/m² 6,5 °C 6,6 °C 12,4 km/h (2 Bft)
26.11.2019 13:00 22,7 °C 8,8 °C 47 % 87 % 1007,0 hPa 0,0 l/m² 8,9 km/h (2 Bft) S 1,00 h 92 W/m² 6,8 °C 7,1 °C 12,5 km/h (2 Bft)
26.11.2019 14:00 22,5 °C 9,1 °C 47 % 87 % 1006,8 hPa 0,0 l/m² 5,4 km/h (1 Bft) S-SO 0,30 h 53 W/m² 7,1 °C 8,8 °C 8,4 km/h (2 Bft)
26.11.2019 15:00 22,4 °C 8,8 °C 48 % 88 % 1006,5 hPa 0,0 l/m² 2,9 km/h (1 Bft) O-SO 0,00 h 28 W/m² 6,9 °C 8,8 °C 4,5 km/h (1 Bft)
26.11.2019 16:00 22,4 °C 8,5 °C 48 % 89 % 1006,2 hPa 0,0 l/m² 1,1 km/h (0 Bft) O 0,00 h 5 W/m² 6,7 °C 8,5 °C 2,0 km/h (1 Bft)
26.11.2019 17:00 22,5 °C 7,8 °C 48 % 90 % 1005,8 hPa 0,0 l/m² 2,0 km/h (1 Bft) O 0,00 h 0 W/m² 6,1 °C 7,8 °C 3,3 km/h (1 Bft)
26.11.2019 18:00 22,6 °C 7,0 °C 49 % 90 % 1005,7 hPa 0,0 l/m² 1,8 km/h (1 Bft) NO 0,00 h 0 W/m² 5,5 °C 7,0 °C 3,3 km/h (1 Bft)
26.11.2019 19:00 22,7 °C 7,5 °C 49 % 92 % 1005,8 hPa 0,0 l/m² 3,8 km/h (1 Bft) SO 0,00 h 0 W/m² 6,3 °C 7,5 °C 5,8 km/h (2 Bft)
26.11.2019 20:00 22,7 °C 7,6 °C 50 % 91 % 1005,4 hPa 0,0 l/m² 4,7 km/h (1 Bft) O 0,00 h 0 W/m² 6,2 °C 7,6 °C 6,2 km/h (2 Bft)
26.11.2019 21:00 22,9 °C 6,9 °C 51 % 91 % 1005,1 hPa 0,0 l/m² 3,2 km/h (1 Bft) O 0,00 h 0 W/m² 5,5 °C 6,9 °C 4,6 km/h (1 Bft)
26.11.2019 22:00 22,7 °C 6,0 °C 50 % 91 % 1004,5 hPa 0,0 l/m² 2,7 km/h (1 Bft) O-NO 0,00 h 0 W/m² 4,6 °C 6,0 °C 4,1 km/h (1 Bft)
26.11.2019 23:00 22,5 °C 5,1 °C 50 % 92 % 1003,6 hPa 0,0 l/m² 2,9 km/h (1 Bft) O-NO 0,00 h 0 W/m² 3,9 °C 5,1 °C 4,2 km/h (1 Bft)
27.11.2019 00:00 22,4 °C 4,3 °C 50 % 93 % 1003,0 hPa 0,0 l/m² 1,8 km/h (1 Bft) O-NO 0,00 h 0 W/m² 3,2 °C 4,3 °C 2,8 km/h (1 Bft)
27.11.2019 01:00 22,4 °C 4,5 °C 50 % 94 % 1002,2 hPa 0,0 l/m² 3,5 km/h (1 Bft) O-NO 0,00 h 0 W/m² 3,6 °C 4,5 °C 5,2 km/h (1 Bft)
27.11.2019 02:00 22,3 °C 5,1 °C 50 % 95 % 1001,1 hPa 0,0 l/m² 3,7 km/h (1 Bft) O-NO 0,00 h 0 W/m² 4,4 °C 5,1 °C 5,5 km/h (2 Bft)
27.11.2019 03:00 22,3 °C 4,9 °C 50 % 94 % 1000,5 hPa 0,0 l/m² 3,3 km/h (1 Bft) N-NO 0,00 h 0 W/m² 4,0 °C 4,9 °C 4,9 km/h (1 Bft)
27.11.2019 04:00 22,3 °C 4,1 °C 50 % 93 % 999,9 hPa 0,0 l/m² 2,7 km/h (1 Bft) O 0,00 h 0 W/m² 3,1 °C 4,1 °C 3,9 km/h (1 Bft)
27.11.2019 05:00 22,2 °C 3,8 °C 47 % 94 % 999,2 hPa 0,0 l/m² 2,0 km/h (1 Bft) NO 0,00 h 0 W/m² 2,9 °C 3,8 °C 3,1 km/h (1 Bft)
27.11.2019 06:00 22,1 °C 4,2 °C 46 % 95 % 998,0 hPa 0,0 l/m² 3,6 km/h (1 Bft) O 0,00 h 0 W/m² 3,4 °C 4,2 °C 5,2 km/h (1 Bft)
27.11.2019 07:00 22,1 °C 5,4 °C 46 % 94 % 997,4 hPa 0,0 l/m² 5,1 km/h (1 Bft) O-SO 0,00 h 0 W/m² 4,5 °C 5,0 °C 8,3 km/h (2 Bft)
27.11.2019 08:00 22,1 °C 6,2 °C 47 % 91 % 997,2 hPa 0,0 l/m² 11,0 km/h (2 Bft) O-SO 0,00 h 16 W/m² 4,8 °C 2,8 °C 13,6 km/h (3 Bft)
27.11.2019 09:00 22,1 °C 6,3 °C 47 % 90 % 997,1 hPa 0,0 l/m² 11,9 km/h (2 Bft) O-SO 0,00 h 27 W/m² 4,7 °C 2,4 °C 14,9 km/h (3 Bft)
27.11.2019 10:00 22,1 °C 7,1 °C 47 % 88 % 996,8 hPa 0,0 l/m² 10,8 km/h (2 Bft) O-SO 0,70 h 69 W/m² 5,3 °C 4,0 °C 14,9 km/h (3 Bft)
27.11.2019 11:00 22,2 °C 7,8 °C 48 % 87 % 996,3 hPa 0,0 l/m² 8,1 km/h (2 Bft) SO 0,35 h 46 W/m² 5,7 °C 6,4 °C 11,7 km/h (2 Bft)
27.11.2019 12:00 22,2 °C 8,1 °C 48 % 89 % 996,5 hPa 0,8 l/m² 9,4 km/h (2 Bft) S-SO 0,00 h 26 W/m² 6,4 °C 5,9 °C 13,0 km/h (3 Bft)
27.11.2019 13:00 22,1 °C 8,3 °C 48 % 91 % 996,4 hPa 0,6 l/m² 8,2 km/h (2 Bft) S-SO 0,00 h 24 W/m² 6,9 °C 7,0 °C 11,3 km/h (2 Bft)
27.11.2019 14:00 22,2 °C 8,3 °C 48 % 92 % 996,0 hPa 0,0 l/m² 6,1 km/h (2 Bft) O-SO 0,00 h 34 W/m² 7,0 °C 8,1 °C 8,3 km/h (2 Bft)
27.11.2019 15:00 22,3 °C 8,4 °C 48 % 92 % 995,8 hPa 0,0 l/m² 5,7 km/h (2 Bft) O-SO 0,27 h 39 W/m² 7,2 °C 8,1 °C 7,8 km/h (2 Bft)
27.11.2019 16:00 22,2 °C 8,0 °C 48 % 91 % 995,5 hPa 0,0 l/m² 3,8 km/h (1 Bft) O 0,00 h 7 W/m² 6,7 °C 8,0 °C 5,6 km/h (2 Bft)
27.11.2019 17:00 22,2 °C 7,7 °C 47 % 91 % 995,1 hPa 0,0 l/m² 10,7 km/h (2 Bft) SO 0,00 h 0 W/m² 6,4 °C 4,7 °C 14,4 km/h (3 Bft)
27.11.2019 18:00 22,3 °C 7,0 °C 49 % 91 % 995,1 hPa 0,0 l/m² 6,1 km/h (2 Bft) O-SO 0,00 h 0 W/m² 5,7 °C 6,5 °C 8,5 km/h (2 Bft)
27.11.2019 19:00 22,4 °C 7,0 °C 50 % 93 % 994,8 hPa 0,0 l/m² 6,0 km/h (2 Bft) O-NO 0,00 h 0 W/m² 6,0 °C 6,6 °C 8,5 km/h (2 Bft)
27.11.2019 20:00 22,5 °C 8,7 °C 52 % 90 % 994,4 hPa 0,0 l/m² 13,5 km/h (3 Bft) O-SO 0,00 h 0 W/m² 7,1 °C 4,4 °C 17,5 km/h (3 Bft)
27.11.2019 21:00 22,6 °C 9,4 °C 51 % 86 % 994,1 hPa 0,0 l/m² 15,9 km/h (3 Bft) SO 0,00 h 0 W/m² 7,2 °C 4,1 °C 20,9 km/h (4 Bft)
27.11.2019 22:00 22,6 °C 9,5 °C 51 % 85 % 993,8 hPa 0,0 l/m² 17,7 km/h (3 Bft) SO 0,00 h 0 W/m² 7,1 °C 3,5 °C 23,6 km/h (4 Bft)
27.11.2019 23:00 22,5 °C 9,1 °C 50 % 86 % 993,3 hPa 0,0 l/m² 14,1 km/h (3 Bft) SO 0,00 h 0 W/m² 6,9 °C 4,5 °C 18,7 km/h (3 Bft)
28.11.2019 00:00 22,3 °C 8,9 °C 51 % 87 % 993,1 hPa 0,0 l/m² 10,8 km/h (2 Bft) S-SO 0,00 h 0 W/m² 6,9 °C 5,9 °C 15,1 km/h (3 Bft)
28.11.2019 01:00 22,3 °C 9,5 °C 51 % 86 % 992,8 hPa 0,0 l/m² 12,9 km/h (3 Bft) S 0,00 h 0 W/m² 7,2 °C 5,6 °C 17,6 km/h (3 Bft)
28.11.2019 02:00 22,4 °C 8,8 °C 51 % 87 % 992,7 hPa 0,0 l/m² 11,7 km/h (2 Bft) S 0,00 h 0 W/m² 6,8 °C 5,5 °C 16,7 km/h (3 Bft)
28.11.2019 03:00 22,3 °C 9,6 °C 51 % 84 % 992,5 hPa 0,0 l/m² 16,4 km/h (3 Bft) S-SW 0,00 h 0 W/m² 7,1 °C 4,3 °C 21,7 km/h (4 Bft)
28.11.2019 04:00 22,3 °C 8,9 °C 51 % 86 % 992,6 hPa 0,0 l/m² 7,8 km/h (2 Bft) S-SO 0,00 h 0 W/m² 6,7 °C 7,7 °C 10,7 km/h (2 Bft)
28.11.2019 05:00 22,2 °C 8,8 °C 49 % 86 % 992,4 hPa 0,0 l/m² 10,4 km/h (2 Bft) S-SO 0,00 h 0 W/m² 6,6 °C 6,1 °C 13,8 km/h (3 Bft)
28.11.2019 06:00 22,3 °C 9,6 °C 49 % 83 % 992,4 hPa 0,0 l/m² 15,4 km/h (3 Bft) S 0,00 h 0 W/m² 6,9 °C 4,7 °C 20,2 km/h (4 Bft)
28.11.2019 07:00 22,2 °C 9,8 °C 48 % 79 % 992,5 hPa 0,0 l/m² 21,5 km/h (4 Bft) S-SW 0,00 h 5 W/m² 6,4 °C 2,7 °C 28,4 km/h (5 Bft)
28.11.2019 08:00 22,2 °C 10,2 °C 48 % 77 % 992,8 hPa 0,0 l/m² 22,1 km/h (4 Bft) S-SW 0,00 h 16 W/m² 6,4 °C 3,0 °C 29,3 km/h (5 Bft)
28.11.2019 09:00 22,7 °C 10,9 °C 48 % 78 % 992,7 hPa 0,0 l/m² 18,9 km/h (3 Bft) S-SW 0,95 h 161 W/m² 7,1 °C 4,9 °C 25,9 km/h (4 Bft)
28.11.2019 10:00 23,0 °C 11,4 °C 47 % 77 % 993,1 hPa 0,0 l/m² 18,2 km/h (3 Bft) S-SW 1,00 h 138 W/m² 7,4 °C 5,7 °C 24,5 km/h (4 Bft)
28.11.2019 11:00 23,1 °C 12,0 °C 47 % 77 % 993,0 hPa 0,0 l/m² 21,2 km/h (4 Bft) S-SW 1,00 h 207 W/m² 8,0 °C 5,6 °C 28,9 km/h (5 Bft)
28.11.2019 12:00 23,0 °C 12,2 °C 47 % 74 % 992,6 hPa 0,0 l/m² 28,5 km/h (5 Bft) SW 1,00 h 146 W/m² 7,6 °C 4,1 °C 37,8 km/h (6 Bft)
28.11.2019 13:00 23,0 °C 12,3 °C 47 % 70 % 992,4 hPa 0,0 l/m² 25,6 km/h (4 Bft) S-SW 1,00 h 176 W/m² 7,1 °C 4,9 °C 33,9 km/h (5 Bft)
28.11.2019 14:00 23,0 °C 11,9 °C 47 % 71 % 992,2 hPa 0,0 l/m² 26,6 km/h (4 Bft) S-SW 0,52 h 61 W/m² 6,8 °C 4,1 °C 34,9 km/h (5 Bft)
28.11.2019 15:00 22,7 °C 11,6 °C 48 % 72 % 991,8 hPa 0,0 l/m² 21,3 km/h (4 Bft) S-SW 0,00 h 28 W/m² 6,7 °C 5,0 °C 28,2 km/h (5 Bft)
28.11.2019 16:00 22,6 °C 11,1 °C 48 % 74 % 992,0 hPa 0,0 l/m² 19,5 km/h (3 Bft) S-SW 0,00 h 8 W/m² 6,6 °C 4,9 °C 26,4 km/h (4 Bft)
28.11.2019 17:00 22,5 °C 10,4 °C 46 % 80 % 992,3 hPa 0,6 l/m² 20,3 km/h (4 Bft) SW 0,00 h 0 W/m² 7,1 °C 3,7 °C 26,7 km/h (4 Bft)
28.11.2019 18:00 22,6 °C 9,7 °C 47 % 86 % 992,7 hPa 0,0 l/m² 18,4 km/h (3 Bft) SW 0,00 h 0 W/m² 7,4 °C 3,5 °C 25,2 km/h (4 Bft)
28.11.2019 19:00 22,7 °C 9,6 °C 48 % 85 % 993,0 hPa 0,0 l/m² 20,8 km/h (4 Bft) SW 0,00 h 0 W/m² 7,3 °C 2,6 °C 28,1 km/h (5 Bft)
28.11.2019 20:00 22,6 °C 9,6 °C 49 % 83 % 993,4 hPa 0,0 l/m² 22,6 km/h (4 Bft) SW 0,00 h 0 W/m² 6,8 °C 2,0 °C 30,5 km/h (5 Bft)
28.11.2019 21:00 22,5 °C 9,3 °C 49 % 85 % 993,8 hPa 0,0 l/m² 20,2 km/h (4 Bft) SW 0,00 h 0 W/m² 6,9 °C 2,4 °C 26,8 km/h (4 Bft)
28.11.2019 22:00 22,4 °C 9,4 °C 49 % 84 % 994,2 hPa 0,0 l/m² 15,7 km/h (3 Bft) SW 0,00 h 0 W/m² 6,9 °C 4,2 °C 21,7 km/h (4 Bft)
28.11.2019 23:00 22,4 °C 9,4 °C 49 % 85 % 994,4 hPa 0,0 l/m² 18,2 km/h (3 Bft) SW 0,00 h 0 W/m² 6,9 °C 3,2 °C 24,8 km/h (4 Bft)
29.11.2019 00:00 22,4 °C 9,1 °C 49 % 86 % 994,8 hPa 0,0 l/m² 16,6 km/h (3 Bft) SW 0,00 h 0 W/m² 6,9 °C 3,5 °C 22,9 km/h (4 Bft)
29.11.2019 01:00 22,4 °C 9,3 °C 49 % 86 % 995,4 hPa 0,0 l/m² 19,3 km/h (3 Bft) SW 0,00 h 0 W/m² 7,2 °C 2,7 °C 26,4 km/h (4 Bft)
29.11.2019 02:00 22,4 °C 9,0 °C 50 % 89 % 996,4 hPa 0,4 l/m² 11,4 km/h (2 Bft) W-NW 0,00 h 0 W/m² 7,3 °C 5,9 °C 16,1 km/h (3 Bft)
29.11.2019 03:00 22,4 °C 8,1 °C 50 % 88 % 997,3 hPa 0,0 l/m² 9,6 km/h (2 Bft) W-NW 0,00 h 0 W/m² 6,2 °C 5,7 °C 16,0 km/h (3 Bft)
29.11.2019 04:00 22,4 °C 7,5 °C 50 % 83 % 998,5 hPa 0,0 l/m² 15,9 km/h (3 Bft) W-NW 0,00 h 0 W/m² 4,8 °C 1,8 °C 26,5 km/h (4 Bft)
29.11.2019 05:00 22,4 °C 7,0 °C 50 % 80 % 999,4 hPa 0,0 l/m² 12,5 km/h (2 Bft) W-NW 0,00 h 0 W/m² 3,8 °C 3,0 °C 21,2 km/h (4 Bft)
29.11.2019 06:00 22,4 °C 6,5 °C 50 % 77 % 1000,4 hPa 0,0 l/m² 15,0 km/h (3 Bft) W 0,00 h 0 W/m² 2,9 °C 1,2 °C 21,2 km/h (4 Bft)
29.11.2019 07:00 22,3 °C 4,8 °C 47 % 77 % 1001,5 hPa 0,0 l/m² 15,0 km/h (3 Bft) W-SW 0,00 h 7 W/m² 1,2 °C -1,1 °C 18,6 km/h (3 Bft)
29.11.2019 08:00 22,6 °C 4,4 °C 47 % 81 % 1002,3 hPa 0,0 l/m² 14,6 km/h (3 Bft) W-SW 0,27 h 34 W/m² 1,4 °C -1,4 °C 19,6 km/h (3 Bft)
29.11.2019 09:00 23,3 °C 5,6 °C 46 % 79 % 1003,2 hPa 0,0 l/m² 18,1 km/h (3 Bft) W-SW 1,00 h 112 W/m² 2,2 °C -1,6 °C 25,0 km/h (4 Bft)
29.11.2019 10:00 23,8 °C 6,5 °C 45 % 77 % 1004,2 hPa 0,0 l/m² 19,5 km/h (3 Bft) W-SW 1,00 h 191 W/m² 2,8 °C -1,0 °C 26,3 km/h (4 Bft)
29.11.2019 11:00 24,0 °C 7,7 °C 45 % 73 % 1005,0 hPa 0,0 l/m² 20,5 km/h (4 Bft) W-SW 1,00 h 258 W/m² 3,1 °C 0,2 °C 26,6 km/h (4 Bft)
29.11.2019 12:00 23,8 °C 7,7 °C 46 % 72 % 1005,3 hPa 0,0 l/m² 21,6 km/h (4 Bft) W-SW 1,00 h 162 W/m² 3,0 °C -0,1 °C 28,5 km/h (5 Bft)
29.11.2019 13:00 23,5 °C 7,7 °C 46 % 69 % 1006,0 hPa 0,0 l/m² 18,9 km/h (3 Bft) W 0,63 h 80 W/m² 2,5 °C 0,8 °C 25,9 km/h (4 Bft)
29.11.2019 14:00 23,3 °C 7,2 °C 47 % 70 % 1006,7 hPa 0,0 l/m² 23,1 km/h (4 Bft) W 0,33 h 46 W/m² 2,0 °C -1,3 °C 30,6 km/h (5 Bft)
29.11.2019 15:00 23,1 °C 5,7 °C 46 % 81 % 1007,9 hPa 0,0 l/m² 13,1 km/h (3 Bft) W-NW 0,00 h 14 W/m² 2,7 °C 1,3 °C 19,9 km/h (4 Bft)
29.11.2019 16:00 22,9 °C 5,2 °C 46 % 83 % 1009,2 hPa 0,0 l/m² 19,6 km/h (3 Bft) W 0,00 h 7 W/m² 2,6 °C -2,5 °C 26,8 km/h (4 Bft)
29.11.2019 17:00 22,8 °C 4,4 °C 47 % 85 % 1010,5 hPa 0,0 l/m² 15,7 km/h (3 Bft) W 0,00 h 0 W/m² 2,1 °C -2,0 °C 20,8 km/h (4 Bft)
29.11.2019 18:00 22,7 °C 4,3 °C 47 % 84 % 1011,8 hPa 0,0 l/m² 13,2 km/h (3 Bft) W-NW 0,00 h 0 W/m² 1,9 °C -0,5 °C 20,8 km/h (4 Bft)
29.11.2019 19:00 22,6 °C 3,2 °C 47 % 84 % 1013,0 hPa 0,0 l/m² 6,1 km/h (2 Bft) NW 0,00 h 0 W/m² 0,8 °C 2,7 °C 11,1 km/h (2 Bft)
29.11.2019 20:00 22,6 °C 2,0 °C 47 % 87 % 1014,1 hPa 0,0 l/m² 3,8 km/h (1 Bft) NW 0,00 h 0 W/m² 0,1 °C 2,0 °C 6,4 km/h (2 Bft)
29.11.2019 21:00 22,7 °C 0,9 °C 47 % 89 % 1015,0 hPa 0,0 l/m² 2,1 km/h (1 Bft) NW 0,00 h 0 W/m² -0,8 °C 0,9 °C 3,8 km/h (1 Bft)
29.11.2019 22:00 22,7 °C -0,2 °C 47 % 91 % 1015,7 hPa 0,0 l/m² 2,2 km/h (1 Bft) S-SW 0,00 h 0 W/m² -1,5 °C -0,2 °C 3,2 km/h (1 Bft)
29.11.2019 23:00 22,8 °C -0,6 °C 47 % 91 % 1016,5 hPa 0,0 l/m² 1,8 km/h (1 Bft) S-SW 0,00 h 0 W/m² -1,9 °C -0,6 °C 2,9 km/h (1 Bft)
30.11.2019 00:00 22,9 °C -0,5 °C 47 % 92 % 1017,1 hPa 0,0 l/m² 1,7 km/h (1 Bft) S 0,00 h 0 W/m² -1,6 °C -0,5 °C 2,9 km/h (1 Bft)
30.11.2019 01:00 22,9 °C 0,5 °C 47 % 93 % 1017,7 hPa 0,0 l/m² 1,3 km/h (1 Bft) N-NW 0,00 h 0 W/m² -0,5 °C 0,5 °C 2,4 km/h (1 Bft)
30.11.2019 02:00 23,0 °C 1,0 °C 47 % 93 % 1018,4 hPa 0,0 l/m² 1,8 km/h (1 Bft) N-NW 0,00 h 0 W/m² -0,0 °C 1,0 °C 3,0 km/h (1 Bft)
30.11.2019 03:00 23,0 °C 1,2 °C 47 % 93 % 1018,9 hPa 0,2 l/m² 1,4 km/h (1 Bft) NW 0,00 h 0 W/m² 0,2 °C 1,2 °C 2,1 km/h (1 Bft)
30.11.2019 04:00 22,9 °C 1,6 °C 47 % 93 % 1019,3 hPa 0,0 l/m² 1,5 km/h (1 Bft) W-SW 0,00 h 0 W/m² 0,6 °C 1,6 °C 2,4 km/h (1 Bft)
30.11.2019 05:00 22,9 °C 1,3 °C 47 % 93 % 1019,7 hPa 0,2 l/m² 1,3 km/h (1 Bft) W-SW 0,00 h 0 W/m² 0,3 °C 1,3 °C 2,0 km/h (1 Bft)
30.11.2019 06:00 22,8 °C 1,1 °C 47 % 93 % 1020,3 hPa 0,2 l/m² 3,5 km/h (1 Bft) W-SW 0,00 h 0 W/m² 0,1 °C 1,1 °C 5,1 km/h (1 Bft)
30.11.2019 07:00 22,8 °C 0,7 °C 47 % 92 % 1020,8 hPa 0,0 l/m² 4,9 km/h (1 Bft) W 0,00 h 6 W/m² -0,5 °C 0,6 °C 6,9 km/h (2 Bft)
30.11.2019 08:00 22,8 °C 0,6 °C 47 % 92 % 1021,3 hPa 0,0 l/m² 4,3 km/h (1 Bft) SW 0,00 h 29 W/m² -0,6 °C 0,6 °C 5,8 km/h (2 Bft)
30.11.2019 09:00 22,9 °C 1,7 °C 47 % 93 % 1022,0 hPa 0,0 l/m² 4,0 km/h (1 Bft) W-SW 0,93 h 80 W/m² 0,7 °C 1,7 °C 5,1 km/h (1 Bft)
30.11.2019 10:00 23,4 °C 4,2 °C 44 % 89 % 1022,6 hPa 0,2 l/m² 7,3 km/h (2 Bft) W-SW 1,02 h 224 W/m² 2,5 °C 2,7 °C 10,6 km/h (2 Bft)
30.11.2019 11:00 22,7 °C 5,3 °C 40 % 85 % 1022,8 hPa 0,0 l/m² 15,7 km/h (3 Bft) W-SW 1,00 h 245 W/m² 3,0 °C -0,9 °C 21,4 km/h (4 Bft)
30.11.2019 12:00 23,0 °C 6,0 °C 43 % 83 % 1022,7 hPa 0,0 l/m² 13,9 km/h (3 Bft) W-SW 1,00 h 259 W/m² 3,3 °C 0,9 °C 18,3 km/h (3 Bft)
30.11.2019 13:00 23,1 °C 6,1 °C 44 % 82 % 1022,8 hPa 0,0 l/m² 10,0 km/h (2 Bft) W 0,78 h 100 W/m² 3,3 °C 3,3 °C 13,5 km/h (3 Bft)
30.11.2019 14:00 23,0 °C 5,2 °C 44 % 83 % 1023,1 hPa 0,0 l/m² 6,5 km/h (2 Bft) W 0,48 h 65 W/m² 2,6 °C 4,2 °C 9,2 km/h (2 Bft)
30.11.2019 15:00 22,8 °C 5,0 °C 45 % 85 % 1023,5 hPa 0,0 l/m² 3,8 km/h (1 Bft) W 0,00 h 32 W/m² 2,7 °C 5,0 °C 5,5 km/h (2 Bft)
30.11.2019 16:00 22,8 °C 3,2 °C 45 % 87 % 1023,7 hPa 0,0 l/m² 1,9 km/h (1 Bft) W-SW 0,00 h 6 W/m² 1,2 °C 3,2 °C 2,8 km/h (1 Bft)
30.11.2019 17:00 22,8 °C 1,2 °C 45 % 90 % 1023,8 hPa 0,0 l/m² 1,2 km/h (1 Bft) W-SW 0,00 h 0 W/m² -0,2 °C 1,2 °C 1,9 km/h (1 Bft)
30.11.2019 18:00 22,7 °C 0,1 °C 46 % 92 % 1024,0 hPa 0,0 l/m² 1,2 km/h (1 Bft) O-SO 0,00 h 0 W/m² -1,0 °C 0,1 °C 2,2 km/h (1 Bft)
30.11.2019 19:00 22,7 °C -0,6 °C 45 % 92 % 1024,1 hPa 0,0 l/m² 0,9 km/h (0 Bft) O-SO 0,00 h 0 W/m² -1,8 °C -0,6 °C 1,9 km/h (1 Bft)
30.11.2019 20:00 22,9 °C -1,4 °C 45 % 92 % 1024,3 hPa 0,0 l/m² 1,3 km/h (1 Bft) O-SO 0,00 h 0 W/m² -2,5 °C -1,4 °C 2,1 km/h (1 Bft)
30.11.2019 21:00 23,7 °C -1,8 °C 45 % 93 % 1024,4 hPa 0,0 l/m² 2,0 km/h (1 Bft) O 0,00 h 0 W/m² -2,8 °C -1,8 °C 3,2 km/h (1 Bft)
30.11.2019 22:00 24,0 °C -2,3 °C 44 % 93 % 1024,3 hPa 0,0 l/m² 0,9 km/h (0 Bft) O-NO 0,00 h 0 W/m² -3,2 °C -2,3 °C 1,7 km/h (1 Bft)
30.11.2019 23:00 23,6 °C -2,6 °C 45 % 93 % 1024,4 hPa 0,0 l/m² 0,9 km/h (0 Bft) O-NO 0,00 h 0 W/m² -3,6 °C -2,6 °C 1,4 km/h (1 Bft)
01.12.2019 00:00 23,4 °C -2,7 °C 45 % 93 % 1024,4 hPa 0,0 l/m² 1,4 km/h (1 Bft) O-NO 0,00 h 0 W/m² -3,6 °C -2,7 °C 2,3 km/h (1 Bft)
01.12.2019 01:00 23,3 °C -2,2 °C 46 % 94 % 1024,3 hPa 0,0 l/m² 0,1 km/h (0 Bft) O-NO 0,00 h 0 W/m² -3,1 °C -2,2 °C 0,4 km/h (0 Bft)
01.12.2019 02:00 23,2 °C -1,8 °C 46 % 94 % 1024,2 hPa 0,0 l/m² 0,1 km/h (0 Bft) O-NO 0,00 h 0 W/m² -2,6 °C -1,8 °C 0,3 km/h (0 Bft)
01.12.2019 03:00 23,3 °C -1,3 °C 46 % 94 % 1023,8 hPa 0,0 l/m² 1,8 km/h (1 Bft) O-NO 0,00 h 0 W/m² -2,1 °C -1,3 °C 2,9 km/h (1 Bft)
01.12.2019 04:00 23,2 °C -1,3 °C 46 % 94 % 1023,6 hPa 0,0 l/m² 0,9 km/h (0 Bft) O-NO 0,00 h 0 W/m² -2,2 °C -1,3 °C 1,5 km/h (1 Bft)
01.12.2019 05:00 23,2 °C -1,8 °C 46 % 94 % 1023,6 hPa 0,0 l/m² 1,4 km/h (1 Bft) NW 0,00 h 0 W/m² -2,7 °C -1,8 °C 2,5 km/h (1 Bft)
01.12.2019 06:00 23,3 °C -2,1 °C 46 % 93 % 1023,3 hPa 0,0 l/m² 0,4 km/h (0 Bft) NW 0,00 h 0 W/m² -3,0 °C -2,1 °C 0,9 km/h (0 Bft)
01.12.2019 07:00 23,3 °C -2,1 °C 46 % 94 % 1022,8 hPa 0,0 l/m² 0,6 km/h (0 Bft) NW 0,00 h 0 W/m² -3,0 °C -2,1 °C 1,2 km/h (1 Bft)
01.12.2019 08:00 23,2 °C -2,1 °C 45 % 94 % 1022,8 hPa 0,0 l/m² 0,9 km/h (0 Bft) NW 0,00 h 17 W/m² -3,0 °C -2,1 °C 1,7 km/h (1 Bft)
01.12.2019 09:00 23,4 °C -1,9 °C 44 % 94 % 1023,1 hPa 0,0 l/m² 0,7 km/h (0 Bft) W-SW 0,68 h 63 W/m² -2,7 °C -1,9 °C 1,2 km/h (1 Bft)
01.12.2019 10:00 23,5 °C -0,9 °C 45 % 94 % 1022,8 hPa 0,2 l/m² 0,3 km/h (0 Bft) W-SW 1,02 h 127 W/m² -1,8 °C -0,9 °C 0,8 km/h (0 Bft)
01.12.2019 11:00 23,9 °C 1,1 °C 44 % 93 % 1022,5 hPa 0,0 l/m² 1,1 km/h (0 Bft) S 1,00 h 268 W/m² 0,1 °C 1,1 °C 2,1 km/h (1 Bft)
01.12.2019 12:00 24,0 °C 2,8 °C 44 % 92 % 1022,2 hPa 0,0 l/m² 2,4 km/h (1 Bft) W-SW 1,00 h 201 W/m² 1,5 °C 2,8 °C 3,6 km/h (1 Bft)
01.12.2019 13:00 23,9 °C 3,8 °C 46 % 90 % 1021,9 hPa 0,0 l/m² 3,2 km/h (1 Bft) W 1,00 h 164 W/m² 2,3 °C 3,8 °C 4,8 km/h (1 Bft)
01.12.2019 14:00 23,6 °C 4,1 °C 45 % 87 % 1021,3 hPa 0,0 l/m² 1,8 km/h (1 Bft) N 0,67 h 70 W/m² 2,2 °C 4,1 °C 3,2 km/h (1 Bft)
01.12.2019 15:00 23,3 °C 2,7 °C 44 % 90 % 1021,0 hPa 0,0 l/m² 2,9 km/h (1 Bft) N 0,00 h 26 W/m² 1,1 °C 2,7 °C 5,2 km/h (1 Bft)
01.12.2019 16:00 23,3 °C 0,7 °C 43 % 92 % 1021,1 hPa 0,0 l/m² 2,9 km/h (1 Bft) W-SW 0,00 h 0 W/m² -0,5 °C 0,7 °C 4,5 km/h (1 Bft)
01.12.2019 17:00 23,9 °C 0,5 °C 45 % 93 % 1021,1 hPa 0,0 l/m² 4,0 km/h (1 Bft) W-SW 0,00 h 0 W/m² -0,5 °C 0,5 °C 5,4 km/h (2 Bft)
01.12.2019 18:00 23,8 °C 0,3 °C 44 % 93 % 1020,9 hPa 0,0 l/m² 1,9 km/h (1 Bft) W-SW 0,00 h 0 W/m² -0,7 °C 0,3 °C 3,6 km/h (1 Bft)
01.12.2019 19:00 23,7 °C 0,0 °C 47 % 94 % 1020,7 hPa 0,0 l/m² 1,9 km/h (1 Bft) W 0,00 h 0 W/m² -0,9 °C 0,0 °C 2,8 km/h (1 Bft)
01.12.2019 20:00 23,8 °C -0,2 °C 48 % 94 % 1020,6 hPa 0,0 l/m² 1,2 km/h (1 Bft) W 0,00 h 0 W/m² -1,1 °C -0,2 °C 2,2 km/h (1 Bft)
01.12.2019 21:00 24,2 °C 0,3 °C 48 % 94 % 1020,8 hPa 0,0 l/m² 2,8 km/h (1 Bft) N-NW 0,00 h 0 W/m² -0,5 °C 0,3 °C 5,3 km/h (1 Bft)
01.12.2019 22:00 24,2 °C 0,3 °C 47 % 94 % 1020,8 hPa 0,0 l/m² 2,3 km/h (1 Bft) NW 0,00 h 0 W/m² -0,5 °C 0,3 °C 4,4 km/h (1 Bft)
01.12.2019 23:00 23,9 °C 0,3 °C 47 % 94 % 1020,8 hPa 0,0 l/m² 3,1 km/h (1 Bft) SW 0,00 h 0 W/m² -0,5 °C 0,3 °C 4,5 km/h (1 Bft)
Min-Datum _ 27.11.19 01.12.19 30.11.19 29.11.19 28.11.19 - 01.12.19 - - - 01.12.19 29.11.19 01.12.19
_ Min-Zeit 07:00 00:10 11:00 14:01 16:19 - 22:07 - - - 00:10 16:17 21:55
Minimum _ 22,0 °C -2,9 °C 35 % 68 % 991,7 hPa - 0,0 km/h (0 Bft) - - - -3,9 °C -6,8 °C 0,0 km/h (0 Bft)
Max-Datum _ 01.12.19 28.11.19 27.11.19 26.11.19 01.12.19 27.11.19 29.11.19 - 28.11.19 28.11.19 28.11.19 28.11.19 29.11.19
_ Max-Zeit 22:01 13:27 21:00 02:22 00:07 12:19 16:17 - 10:56 11:33 11:30 04:00 16:17
Maximum _ 24,4 °C 12,7 °C 52 % 96 % 1024,6 hPa 0,8 l/m² 36,4 km/h
W (5 Bft)
- 0,13 h 403 W/m² 8,6 °C 9,1 °C 51,5 km/h
W (7 Bft)
Durchschnitt _ 22,8 °C 4,7 °C 48 % 89 % 1008,4 hPa #3,6 l/m² 7,8 km/h (2 Bft) W-SW #29:35 h 30 W/m² 3,0 °C 2,7 °C 11,0 km/h (2 Bft)
© 2009 Mathias Hoßbach